Terminal Aerodrome Forecast
Issued by NWS

Current Version | Previous Version | Text Only | Print | Product List | Glossary On
Versions: 1 2 3 4 5 6 7 8 9 10 11 12
000
FTUS45 KABQ 111139
TAFFMN
TAF
KFMN 111139Z 1112/1212 07007KT P6SM VCSH SCT015 BKN060
      TEMPO 1114/1116 VRB06KT 2SM -SHSN SCT005 BKN015
     FM111800 30011KT P6SM SCT015 BKN060
     FM112200 32011KT P6SM SCT060
     FM120400 07006KT P6SM SCT005=

USA.gov is the U.S. government's official web portal to all federal, state and local government web resources and services.